createdAt,value
2018-06-27T00:00:25.097Z,23.79
2018-06-27T00:01:34.822Z,23.76
2018-06-27T00:02:44.482Z,23.73
2018-06-27T00:03:53.636Z,23.7
2018-06-27T00:05:02.816Z,23.7
2018-06-27T00:06:11.977Z,23.73
2018-06-27T00:07:21.725Z,23.76
2018-06-27T00:08:31.156Z,23.68
2018-06-27T00:09:40.315Z,23.75
2018-06-27T00:10:49.482Z,23.78
2018-06-27T00:11:58.673Z,23.78
2018-06-27T00:13:08.399Z,23.68
2018-06-27T00:14:17.302Z,23.65
2018-06-27T00:15:26.455Z,23.7
2018-06-27T00:16:35.620Z,23.76
2018-06-27T00:17:44.535Z,23.72
2018-06-27T00:18:53.689Z,23.68
2018-06-27T00:20:03.117Z,23.72
2018-06-27T00:21:12.010Z,23.7
2018-06-27T00:22:21.177Z,23.76
2018-06-27T00:23:31.117Z,23.76
2018-06-27T00:24:40.539Z,23.72
2018-06-27T00:25:49.942Z,23.79
2018-06-27T00:26:59.173Z,23.78
2018-06-27T00:28:08.851Z,23.73
2018-06-27T00:29:18.535Z,23.78
2018-06-27T00:30:27.436Z,23.76
2018-06-27T00:31:37.365Z,23.7
2018-06-27T00:32:46.259Z,23.72
2018-06-27T00:33:56.196Z,23.73
2018-06-27T00:35:06.036Z,23.75
2018-06-27T00:36:15.441Z,23.73
2018-06-27T00:37:24.865Z,23.72
2018-06-27T00:38:34.525Z,23.68
2018-06-27T00:39:44.467Z,23.68
2018-06-27T00:40:54.149Z,23.75
2018-06-27T00:42:04.090Z,23.7
2018-06-27T00:43:13.491Z,23.73
2018-06-27T00:44:22.948Z,23.68
2018-06-27T00:45:32.664Z,23.75
2018-06-27T00:46:42.337Z,23.72
2018-06-27T00:47:51.747Z,23.7
2018-06-27T00:49:00.914Z,23.75
2018-06-27T00:50:10.879Z,23.76
2018-06-27T00:51:20.578Z,23.76
2018-06-27T00:52:30.249Z,23.75
2018-06-27T00:53:39.395Z,23.68
2018-06-27T00:54:49.056Z,23.72
2018-06-27T00:55:58.725Z,23.7
2018-06-27T00:57:07.902Z,23.78
2018-06-27T00:58:17.331Z,23.73
2018-06-27T00:59:26.743Z,23.7
2018-06-27T01:00:36.151Z,23.69
2018-06-27T01:01:45.566Z,23.7
2018-06-27T01:02:54.470Z,23.78
2018-06-27T01:04:04.151Z,23.76
2018-06-27T01:05:13.547Z,23.75
2018-06-27T01:06:23.476Z,23.69
2018-06-27T01:07:33.144Z,23.76
2018-06-27T01:08:42.026Z,23.73
2018-06-27T01:09:51.444Z,23.68
2018-06-27T01:11:01.111Z,23.73
2018-06-27T01:12:11.043Z,23.73
2018-06-27T01:13:20.213Z,23.72
2018-06-27T01:14:28.847Z,23.65
2018-06-27T01:15:38.117Z,23.73
2018-06-27T01:16:47.283Z,23.66
2018-06-27T01:17:56.724Z,23.7
2018-06-27T01:19:06.154Z,23.76
2018-06-27T01:20:15.726Z,23.65
2018-06-27T01:21:25.666Z,23.72
2018-06-27T01:22:34.569Z,23.66
2018-06-27T01:23:44.263Z,23.7
2018-06-27T01:24:53.944Z,23.69
2018-06-27T01:26:03.355Z,23.72
2018-06-27T01:27:12.253Z,23.61
2018-06-27T01:28:21.908Z,23.66
2018-06-27T01:29:31.337Z,23.76
2018-06-27T01:30:41.024Z,23.68
2018-06-27T01:31:50.440Z,23.66
2018-06-27T01:32:59.863Z,23.76
2018-06-27T01:34:09.293Z,23.63
2018-06-27T01:35:18.953Z,23.7
2018-06-27T01:36:28.103Z,23.65
2018-06-27T01:37:37.519Z,23.61
2018-06-27T01:38:47.483Z,23.68
2018-06-27T01:39:56.932Z,23.72
2018-06-27T01:41:06.607Z,23.65
2018-06-27T01:42:16.285Z,23.69
2018-06-27T01:43:25.446Z,23.63
2018-06-27T01:44:35.123Z,23.66
2018-06-27T01:45:44.523Z,23.68
2018-06-27T01:46:54.434Z,23.68
2018-06-27T01:48:03.600Z,23.75
2018-06-27T01:49:13.011Z,23.63
2018-06-27T01:50:22.690Z,23.63
2018-06-27T01:51:32.623Z,23.66
2018-06-27T01:52:42.040Z,23.68
2018-06-27T01:53:51.462Z,23.73
2018-06-27T01:55:01.135Z,23.61
2018-06-27T01:56:10.549Z,23.63
2018-06-27T01:57:20.233Z,23.63
2018-06-27T01:58:29.667Z,23.65
2018-06-27T01:59:39.336Z,23.65
2018-06-27T02:00:48.499Z,23.69
2018-06-27T02:01:58.437Z,23.57
2018-06-27T02:03:07.850Z,23.68
2018-06-27T02:04:17.007Z,23.65
2018-06-27T02:05:26.414Z,23.63
2018-06-27T02:06:35.575Z,23.61
2018-06-27T02:07:44.992Z,23.68
2018-06-27T02:08:53.880Z,23.63
2018-06-27T02:10:03.038Z,23.68
2018-06-27T02:11:11.940Z,23.65
2018-06-27T02:12:21.096Z,23.65
2018-06-27T02:13:30.763Z,23.65
2018-06-27T02:14:40.173Z,23.63
2018-06-27T02:15:49.848Z,23.66
2018-06-27T02:16:59.256Z,23.63
2018-06-27T02:18:08.400Z,23.61
2018-06-27T02:19:17.825Z,23.61
2018-06-27T02:20:26.992Z,23.61
2018-06-27T02:21:36.668Z,23.63
2018-06-27T02:22:45.315Z,23.61
2018-06-27T02:23:54.722Z,23.6
2018-06-27T02:25:03.619Z,23.63
2018-06-27T02:26:12.771Z,23.61
2018-06-27T02:27:22.252Z,23.65
2018-06-27T02:28:31.541Z,23.68
2018-06-27T02:29:40.968Z,23.65
2018-06-27T02:30:49.875Z,23.63
2018-06-27T02:31:59.294Z,23.6
2018-06-27T02:33:08.454Z,23.58
2018-06-27T02:34:17.626Z,23.68
2018-06-27T02:35:27.043Z,23.63
2018-06-27T02:36:36.719Z,23.61
2018-06-27T02:37:45.889Z,23.61
2018-06-27T02:38:55.566Z,23.68
2018-06-27T02:40:05.232Z,23.58
2018-06-27T02:41:14.131Z,23.61
2018-06-27T02:42:23.558Z,23.63
2018-06-27T02:43:32.709Z,23.63
2018-06-27T02:44:42.128Z,23.66
2018-06-27T02:45:51.817Z,23.6
2018-06-27T02:47:01.214Z,23.63
2018-06-27T02:48:10.875Z,23.57
2018-06-27T02:49:20.553Z,23.63
2018-06-27T02:50:30.229Z,23.6
2018-06-27T02:51:39.128Z,23.65
2018-06-27T02:52:48.807Z,23.65
2018-06-27T02:53:58.034Z,23.63
2018-06-27T02:55:07.437Z,23.63
2018-06-27T02:56:17.170Z,23.55
2018-06-27T02:57:26.576Z,23.6
2018-06-27T02:58:35.728Z,23.54
2018-06-27T02:59:45.143Z,23.61
2018-06-27T03:00:54.293Z,23.61
2018-06-27T03:02:03.875Z,23.55
2018-06-27T03:03:13.797Z,23.61
2018-06-27T03:04:22.709Z,23.65
2018-06-27T03:05:32.657Z,23.54
2018-06-27T03:06:42.351Z,23.65
2018-06-27T03:07:51.859Z,23.63
2018-06-27T03:09:01.539Z,23.51
2018-06-27T03:10:10.967Z,23.58
2018-06-27T03:11:20.644Z,23.6
2018-06-27T03:12:30.058Z,23.61
2018-06-27T03:13:39.490Z,23.58
2018-06-27T03:14:49.172Z,23.6
2018-06-27T03:15:58.857Z,23.6
2018-06-27T03:17:07.772Z,23.58
2018-06-27T03:18:17.723Z,23.63
2018-06-27T03:19:26.873Z,23.53
2018-06-27T03:20:35.780Z,23.58
2018-06-27T03:21:44.946Z,23.57
2018-06-27T03:22:54.624Z,23.58
2018-06-27T03:24:03.795Z,23.58
2018-06-27T03:25:13.720Z,23.63
2018-06-27T03:26:22.625Z,23.54
2018-06-27T03:27:31.785Z,23.6
2018-06-27T03:28:41.198Z,23.55
2018-06-27T03:29:50.615Z,23.57
2018-06-27T03:31:00.047Z,23.58
2018-06-27T03:32:09.743Z,23.61
2018-06-27T03:33:19.141Z,23.6
2018-06-27T03:34:28.558Z,23.55
2018-06-27T03:35:37.741Z,23.6
2018-06-27T03:36:47.416Z,23.61
2018-06-27T03:37:56.331Z,23.54
2018-06-27T03:39:06.038Z,23.57
2018-06-27T03:40:15.709Z,23.6
2018-06-27T03:41:25.642Z,23.57
2018-06-27T03:42:34.796Z,23.57
2018-06-27T03:43:44.212Z,23.58
2018-06-27T03:44:53.131Z,23.57
2018-06-27T03:46:02.557Z,23.57
2018-06-27T03:47:11.988Z,23.5
2018-06-27T03:48:21.415Z,23.5
2018-06-27T03:49:30.310Z,23.58
2018-06-27T03:50:39.529Z,23.55
2018-06-27T03:51:48.419Z,23.55
2018-06-27T03:52:57.569Z,23.54
2018-06-27T03:54:06.819Z,23.58
2018-06-27T03:55:15.987Z,23.51
2018-06-27T03:56:25.158Z,23.53
2018-06-27T03:57:34.551Z,23.51
2018-06-27T03:58:43.962Z,23.51
2018-06-27T03:59:53.883Z,23.58
2018-06-27T04:01:03.056Z,23.58
2018-06-27T04:02:12.527Z,23.61
2018-06-27T04:03:21.450Z,23.53
2018-06-27T04:04:30.106Z,23.54
2018-06-27T04:05:39.791Z,23.57
2018-06-27T04:06:49.193Z,23.57
2018-06-27T04:07:58.936Z,23.55
2018-06-27T04:09:08.355Z,23.6
2018-06-27T04:10:17.250Z,23.58
2018-06-27T04:11:26.652Z,23.51
2018-06-27T04:12:36.665Z,23.55
2018-06-27T04:13:45.559Z,23.51
2018-06-27T04:14:55.223Z,23.57
2018-06-27T04:16:04.390Z,23.57
2018-06-27T04:17:14.055Z,23.53
2018-06-27T04:18:23.487Z,23.55
2018-06-27T04:19:32.644Z,23.54
2018-06-27T04:20:42.057Z,23.57
2018-06-27T04:21:51.219Z,23.5
2018-06-27T04:23:00.628Z,23.54
2018-06-27T04:24:09.794Z,23.55
2018-06-27T04:25:18.952Z,23.57
2018-06-27T04:26:28.111Z,23.53
2018-06-27T04:27:38.068Z,23.54
2018-06-27T04:28:47.479Z,23.55
2018-06-27T04:29:56.372Z,23.48
2018-06-27T04:31:05.782Z,23.53
2018-06-27T04:32:15.229Z,23.51
2018-06-27T04:33:23.884Z,23.55
2018-06-27T04:34:33.099Z,23.51
2018-06-27T04:35:42.290Z,23.51
2018-06-27T04:36:51.485Z,23.54
2018-06-27T04:38:01.159Z,23.54
2018-06-27T04:39:10.622Z,23.54
2018-06-27T04:40:20.290Z,23.51
2018-06-27T04:41:29.698Z,23.54
2018-06-27T04:42:39.620Z,23.58
2018-06-27T04:43:49.294Z,23.55
2018-06-27T04:44:58.469Z,23.48
2018-06-27T04:46:07.647Z,23.54
2018-06-27T04:47:17.070Z,23.54
2018-06-27T04:48:26.480Z,23.55
2018-06-27T04:49:36.119Z,23.47
2018-06-27T04:50:45.826Z,23.53
2018-06-27T04:51:55.075Z,23.53
2018-06-27T04:53:04.757Z,23.53
2018-06-27T04:54:14.182Z,23.5
2018-06-27T04:55:23.609Z,23.57
2018-06-27T04:56:32.762Z,23.55
2018-06-27T04:57:41.920Z,23.51
2018-06-27T04:58:51.605Z,23.47
2018-06-27T05:00:00.785Z,23.5
2018-06-27T05:01:09.962Z,23.51
2018-06-27T05:02:19.104Z,23.54
2018-06-27T05:03:28.006Z,23.5
2018-06-27T05:04:37.673Z,23.57
2018-06-27T05:05:47.332Z,23.5
2018-06-27T05:06:56.812Z,23.54
2018-06-27T05:08:06.737Z,23.54
2018-06-27T05:09:16.158Z,23.55
2018-06-27T05:10:25.838Z,23.55
2018-06-27T05:11:35.375Z,23.53
2018-06-27T05:12:45.119Z,23.51
2018-06-27T05:13:54.786Z,23.51
2018-06-27T05:15:04.703Z,23.51
2018-06-27T05:16:13.591Z,23.57
2018-06-27T05:17:22.759Z,23.6
2018-06-27T05:18:32.184Z,23.53
2018-06-27T05:19:41.604Z,23.53
2018-06-27T05:20:50.791Z,23.54
2018-06-27T05:22:00.351Z,23.54
2018-06-27T05:23:10.032Z,23.6
2018-06-27T05:24:19.189Z,23.54
2018-06-27T05:25:28.343Z,23.54
2018-06-27T05:26:37.493Z,23.53
2018-06-27T05:27:47.367Z,23.54
2018-06-27T05:28:56.526Z,23.51
2018-06-27T05:30:05.963Z,23.51
2018-06-27T05:31:15.128Z,23.43
2018-06-27T05:32:24.303Z,23.51
2018-06-27T05:33:33.485Z,23.57
2018-06-27T05:34:42.637Z,23.51
2018-06-27T05:35:51.797Z,23.57
2018-06-27T05:37:00.723Z,23.5
2018-06-27T05:38:09.928Z,23.51
2018-06-27T05:39:19.327Z,23.61
2018-06-27T05:40:28.218Z,23.54
2018-06-27T05:41:38.151Z,23.5
2018-06-27T05:42:47.563Z,23.54
2018-06-27T05:43:57.217Z,23.51
2018-06-27T05:45:06.382Z,23.51
2018-06-27T05:46:16.040Z,23.48
2018-06-27T05:47:25.007Z,23.47
2018-06-27T05:48:34.667Z,23.5
2018-06-27T05:49:44.340Z,23.46
2018-06-27T05:50:53.760Z,23.53
2018-06-27T05:52:03.440Z,23.5
2018-06-27T05:53:13.129Z,23.53
2018-06-27T05:54:22.533Z,23.46
2018-06-27T05:55:31.730Z,23.51
2018-06-27T05:56:41.126Z,23.53
2018-06-27T05:57:50.795Z,23.51
2018-06-27T05:59:00.483Z,23.47
2018-06-27T06:00:09.384Z,23.51
2018-06-27T06:01:18.796Z,23.51
2018-06-27T06:02:28.206Z,23.58
2018-06-27T06:03:37.380Z,23.55
2018-06-27T06:04:46.283Z,23.55
2018-06-27T06:05:55.704Z,23.55
2018-06-27T06:07:05.121Z,23.53
2018-06-27T06:08:14.539Z,23.5
2018-06-27T06:09:24.216Z,23.54
2018-06-27T06:10:33.618Z,23.55
2018-06-27T06:11:43.278Z,23.55
2018-06-27T06:12:53.071Z,23.61
2018-06-27T06:14:02.767Z,23.63
2018-06-27T06:15:11.932Z,23.57
2018-06-27T06:16:21.600Z,23.55
2018-06-27T06:17:31.258Z,23.61
2018-06-27T06:18:40.669Z,23.53
2018-06-27T06:19:50.250Z,23.63
2018-06-27T06:20:59.465Z,23.55
2018-06-27T06:22:08.890Z,23.63
2018-06-27T06:23:18.297Z,23.57
2018-06-27T06:24:27.455Z,23.66
2018-06-27T06:25:36.852Z,23.65
2018-06-27T06:26:46.266Z,23.61
2018-06-27T06:27:55.945Z,23.63
2018-06-27T06:29:04.842Z,23.65
2018-06-27T06:30:14.254Z,23.61
2018-06-27T06:31:23.675Z,23.58
2018-06-27T06:32:33.760Z,23.61
2018-06-27T06:33:43.210Z,23.65
2018-06-27T06:34:51.856Z,23.6
2018-06-27T06:36:01.012Z,23.61
2018-06-27T06:37:10.498Z,23.66
2018-06-27T06:38:19.661Z,23.66
2018-06-27T06:39:29.074Z,23.61
2018-06-27T06:40:38.268Z,23.61
2018-06-27T06:41:48.329Z,23.6
2018-06-27T06:42:58.015Z,23.65
2018-06-27T06:44:07.744Z,23.63
2018-06-27T06:45:16.905Z,23.63
2018-06-27T06:46:26.566Z,23.6
2018-06-27T06:47:36.299Z,23.66
2018-06-27T06:48:45.710Z,23.68
2018-06-27T06:49:55.108Z,23.63
2018-06-27T06:51:04.020Z,23.54
2018-06-27T06:52:13.872Z,23.66
2018-06-27T06:53:23.362Z,23.61
2018-06-27T06:54:32.534Z,23.65
2018-06-27T06:55:41.948Z,23.63
2018-06-27T06:56:51.856Z,23.63
2018-06-27T06:58:01.269Z,23.66
2018-06-27T06:59:10.686Z,23.65
2018-06-27T07:00:20.147Z,23.6
2018-06-27T07:01:29.820Z,23.63
2018-06-27T07:02:39.486Z,23.68
2018-06-27T07:03:48.660Z,23.65
2018-06-27T07:04:57.885Z,23.65
2018-06-27T07:06:07.836Z,23.65
2018-06-27T07:07:17.236Z,23.66
2018-06-27T07:08:26.402Z,23.69
2018-06-27T07:09:36.074Z,23.61
2018-06-27T07:10:45.537Z,23.63
2018-06-27T07:11:55.235Z,23.66
2018-06-27T07:13:04.657Z,23.6
2018-06-27T07:14:14.367Z,23.69
2018-06-27T07:15:23.511Z,23.61
2018-06-27T07:16:32.696Z,23.72
2018-06-27T07:17:41.883Z,23.68
2018-06-27T07:18:51.308Z,23.66
2018-06-27T07:20:00.981Z,23.68
2018-06-27T07:21:10.396Z,23.66
2018-06-27T07:22:19.825Z,23.68
2018-06-27T07:23:28.704Z,23.7
2018-06-27T07:24:38.377Z,23.63
2018-06-27T07:25:48.483Z,23.69
2018-06-27T07:26:58.174Z,23.63
2018-06-27T07:28:07.855Z,23.65
2018-06-27T07:29:17.260Z,23.7
2018-06-27T07:30:26.655Z,23.63
2018-06-27T07:31:36.055Z,23.63
2018-06-27T07:32:45.718Z,23.61
2018-06-27T07:33:55.133Z,23.65
2018-06-27T07:35:04.827Z,23.61
2018-06-27T07:36:14.240Z,23.68
2018-06-27T07:37:24.178Z,23.7
2018-06-27T07:38:33.856Z,23.63
2018-06-27T07:39:43.530Z,23.72
2018-06-27T07:40:53.198Z,23.69
2018-06-27T07:42:03.117Z,23.66
2018-06-27T07:43:12.284Z,23.72
2018-06-27T07:44:21.453Z,23.75
2018-06-27T07:45:31.497Z,23.68
2018-06-27T07:46:40.687Z,23.75
2018-06-27T07:47:50.535Z,23.79
2018-06-27T07:49:00.192Z,23.66
2018-06-27T07:50:09.393Z,23.76
2018-06-27T07:51:19.078Z,23.69
2018-06-27T07:52:28.749Z,23.76
2018-06-27T07:53:38.414Z,23.73
2018-06-27T07:54:47.826Z,23.69
2018-06-27T07:55:57.492Z,23.75
2018-06-27T07:57:07.212Z,23.69
2018-06-27T07:58:16.107Z,23.72
2018-06-27T07:59:25.540Z,23.76
2018-06-27T08:00:34.186Z,23.63
2018-06-27T08:01:43.854Z,23.73
2018-06-27T08:02:53.511Z,23.63
2018-06-27T08:04:02.927Z,23.78
2018-06-27T08:05:12.077Z,23.75
2018-06-27T08:06:21.494Z,23.7
2018-06-27T08:07:31.162Z,23.76
2018-06-27T08:08:41.087Z,23.7
2018-06-27T08:09:50.490Z,23.68
2018-06-27T08:11:00.164Z,23.65
2018-06-27T08:12:09.604Z,23.61
2018-06-27T08:13:19.334Z,23.79
2018-06-27T08:14:28.743Z,23.73
2018-06-27T08:15:38.670Z,23.63
2018-06-27T08:16:48.088Z,23.63
2018-06-27T08:17:57.631Z,23.78
2018-06-27T08:19:08.025Z,23.65
2018-06-27T08:20:17.587Z,23.69
2018-06-27T08:21:27.272Z,23.68
2018-06-27T08:22:37.211Z,23.72
2018-06-27T08:23:47.138Z,23.79
2018-06-27T08:24:56.557Z,23.73
2018-06-27T08:26:06.215Z,23.76
2018-06-27T08:27:16.011Z,23.69
2018-06-27T08:28:25.676Z,23.66
2018-06-27T08:29:35.356Z,23.72
2018-06-27T08:30:44.779Z,23.72
2018-06-27T08:31:54.855Z,23.69
2018-06-27T08:33:04.541Z,23.73
2018-06-27T08:34:13.702Z,23.78
2018-06-27T08:35:23.368Z,23.73
2018-06-27T08:36:32.784Z,23.73
2018-06-27T08:37:42.468Z,23.8
2018-06-27T08:38:52.400Z,23.72
2018-06-27T08:40:02.732Z,23.69
2018-06-27T08:41:12.404Z,23.76
2018-06-27T08:42:21.311Z,23.79
2018-06-27T08:43:30.464Z,23.63
2018-06-27T08:44:40.165Z,23.75
2018-06-27T08:45:50.101Z,23.85
2018-06-27T08:46:59.504Z,23.69
2018-06-27T08:48:09.438Z,23.72
2018-06-27T08:49:18.593Z,23.72
2018-06-27T08:50:28.251Z,23.75
2018-06-27T08:51:38.175Z,23.72
2018-06-27T08:52:47.594Z,23.84
2018-06-27T08:53:57.022Z,23.76
2018-06-27T08:55:06.199Z,23.8
2018-06-27T08:56:16.124Z,23.7
2018-06-27T08:57:25.788Z,23.8
2018-06-27T08:58:35.460Z,23.78
2018-06-27T08:59:44.927Z,23.75
2018-06-27T09:00:54.076Z,23.76
2018-06-27T09:02:03.729Z,23.85
2018-06-27T09:03:12.882Z,23.84
2018-06-27T09:04:22.276Z,23.75
2018-06-27T09:05:31.683Z,23.85
2018-06-27T09:06:41.087Z,23.76
2018-06-27T09:07:51.102Z,23.78
2018-06-27T09:09:00.318Z,23.79
2018-06-27T09:10:09.780Z,23.79
2018-06-27T09:11:19.184Z,23.75
2018-06-27T09:12:28.584Z,23.85
2018-06-27T09:13:37.983Z,23.75
2018-06-27T09:14:48.260Z,23.7
2018-06-27T09:15:57.167Z,23.75
2018-06-27T09:17:06.616Z,23.84
2018-06-27T09:18:16.053Z,23.78
2018-06-27T09:19:25.726Z,23.78
2018-06-27T09:20:34.940Z,23.72
2018-06-27T09:21:44.087Z,23.79
2018-06-27T09:22:53.045Z,23.78
2018-06-27T09:24:02.711Z,23.73
2018-06-27T09:25:12.700Z,23.8
2018-06-27T09:26:22.627Z,23.7
2018-06-27T09:27:32.051Z,23.73
2018-06-27T09:28:41.460Z,23.84
2018-06-27T09:29:51.388Z,23.72
2018-06-27T09:31:01.089Z,23.75
2018-06-27T09:32:10.799Z,23.84
2018-06-27T09:33:19.695Z,23.73
2018-06-27T09:34:29.108Z,23.78
2018-06-27T09:35:38.519Z,23.79
2018-06-27T09:36:48.212Z,23.72
2018-06-27T09:37:57.628Z,23.8
2018-06-27T09:39:07.043Z,23.83
2018-06-27T09:40:16.457Z,23.8
2018-06-27T09:41:25.856Z,23.76
2018-06-27T09:42:35.030Z,23.75
2018-06-27T09:43:44.707Z,23.84
2018-06-27T09:44:54.628Z,23.78
2018-06-27T09:46:03.773Z,23.84
2018-06-27T09:47:13.435Z,23.8
2018-06-27T09:48:22.834Z,23.79
2018-06-27T09:49:32.503Z,23.78
2018-06-27T09:50:41.905Z,23.78
2018-06-27T09:51:51.575Z,23.72
2018-06-27T09:53:01.487Z,23.65
2018-06-27T09:54:10.918Z,23.8
2018-06-27T09:55:20.093Z,23.83
2018-06-27T09:56:29.499Z,23.79
2018-06-27T09:57:38.913Z,23.72
2018-06-27T09:58:48.321Z,23.79
2018-06-27T09:59:57.764Z,23.75
2018-06-27T10:01:07.487Z,23.79
2018-06-27T10:02:17.152Z,23.78
2018-06-27T10:03:26.846Z,23.85
2018-06-27T10:04:36.514Z,23.75
2018-06-27T10:05:46.454Z,23.78
2018-06-27T10:06:56.388Z,23.78
2018-06-27T10:08:06.050Z,23.76
2018-06-27T10:09:15.474Z,23.79
2018-06-27T10:10:25.137Z,23.69
2018-06-27T10:11:34.561Z,23.75
2018-06-27T10:12:43.976Z,23.68
2018-06-27T10:13:53.127Z,23.79
2018-06-27T10:15:02.280Z,23.72
2018-06-27T10:16:11.910Z,23.76
2018-06-27T10:17:21.714Z,23.78
2018-06-27T10:18:31.419Z,23.75
2018-06-27T10:19:41.091Z,23.83
2018-06-27T10:20:50.768Z,23.66
2018-06-27T10:22:00.424Z,23.83
2018-06-27T10:23:09.598Z,23.79
2018-06-27T10:24:19.001Z,23.73
2018-06-27T10:25:27.904Z,23.85
2018-06-27T10:26:37.577Z,23.87
2018-06-27T10:27:47.252Z,23.73
2018-06-27T10:28:56.649Z,23.7
2018-06-27T10:30:06.307Z,23.72
2018-06-27T10:31:15.726Z,23.73
2018-06-27T10:32:25.384Z,23.85
2018-06-27T10:33:35.310Z,23.7
2018-06-27T10:34:45.059Z,23.68
2018-06-27T10:35:54.244Z,23.8
2018-06-27T10:37:04.174Z,23.68
2018-06-27T10:38:13.579Z,23.85
2018-06-27T10:39:22.997Z,23.73
2018-06-27T10:40:32.943Z,23.83
2018-06-27T10:41:42.095Z,23.83
2018-06-27T10:42:51.313Z,23.78
2018-06-27T10:44:01.036Z,23.79
2018-06-27T10:45:10.191Z,23.75
2018-06-27T10:46:19.598Z,23.7
2018-06-27T10:47:29.535Z,23.72
2018-06-27T10:48:38.944Z,23.75
2018-06-27T10:49:48.091Z,23.79
2018-06-27T10:50:57.765Z,23.68
2018-06-27T10:52:07.176Z,23.78
2018-06-27T10:53:16.598Z,23.69
2018-06-27T10:54:26.028Z,23.73
2018-06-27T10:55:35.204Z,23.8
2018-06-27T10:56:45.139Z,23.75
2018-06-27T10:57:54.835Z,23.79
2018-06-27T10:59:04.807Z,23.83
2018-06-27T11:00:14.736Z,23.8
2018-06-27T11:01:24.678Z,23.75
2018-06-27T11:02:33.305Z,23.8
2018-06-27T11:03:42.992Z,23.75
2018-06-27T11:04:52.423Z,23.78
2018-06-27T11:06:02.085Z,23.75
2018-06-27T11:07:11.492Z,23.7
2018-06-27T11:08:20.650Z,23.79
2018-06-27T11:09:30.343Z,23.73
2018-06-27T11:10:40.285Z,23.83
2018-06-27T11:11:49.720Z,23.83
2018-06-27T11:12:59.650Z,23.84
2018-06-27T11:14:09.913Z,23.79
2018-06-27T11:15:19.084Z,23.84
2018-06-27T11:16:28.066Z,23.83
2018-06-27T11:17:37.985Z,23.79
2018-06-27T11:18:47.398Z,23.75
2018-06-27T11:19:56.813Z,23.8
2018-06-27T11:21:06.491Z,23.76
2018-06-27T11:22:15.931Z,23.72
2018-06-27T11:23:25.350Z,23.73
2018-06-27T11:24:35.109Z,23.78
2018-06-27T11:25:44.835Z,23.83
2018-06-27T11:26:54.688Z,23.83
2018-06-27T11:28:04.447Z,23.8
2018-06-27T11:29:13.877Z,23.83
2018-06-27T11:30:23.074Z,23.8
2018-06-27T11:31:33.021Z,23.88
2018-06-27T11:32:42.805Z,23.76
2018-06-27T11:33:53.012Z,23.87
2018-06-27T11:35:02.708Z,23.8
2018-06-27T11:36:11.879Z,23.7
2018-06-27T11:37:21.606Z,23.75
2018-06-27T11:38:31.250Z,23.73
2018-06-27T11:39:41.721Z,23.79
2018-06-27T11:40:51.174Z,23.7
2018-06-27T11:42:00.863Z,23.78
2018-06-27T11:43:10.653Z,23.83
2018-06-27T11:44:20.187Z,23.75
2018-06-27T11:45:29.644Z,23.8
2018-06-27T11:46:38.875Z,23.75
2018-06-27T11:47:48.797Z,23.83
2018-06-27T11:48:58.475Z,23.78
2018-06-27T11:50:08.229Z,23.83
2018-06-27T11:51:17.680Z,23.84
2018-06-27T11:52:27.088Z,23.91
2018-06-27T11:53:36.513Z,23.8
2018-06-27T11:54:46.475Z,23.83
2018-06-27T11:55:56.157Z,23.79
2018-06-27T11:57:06.188Z,23.88
2018-06-27T11:58:15.636Z,23.78
2018-06-27T11:59:25.061Z,23.84
2018-06-27T12:00:34.719Z,23.76
2018-06-27T12:01:44.419Z,23.79
2018-06-27T12:02:54.102Z,23.84
2018-06-27T12:04:03.537Z,23.8
2018-06-27T12:05:13.513Z,23.84
2018-06-27T12:06:23.208Z,23.83
2018-06-27T12:07:32.631Z,23.76
2018-06-27T12:08:42.131Z,23.85
2018-06-27T12:09:51.306Z,23.79
2018-06-27T12:11:01.002Z,23.78
2018-06-27T12:12:10.432Z,23.78
2018-06-27T12:13:19.878Z,23.87
2018-06-27T12:14:29.329Z,23.8
2018-06-27T12:15:37.964Z,23.88
2018-06-27T12:16:47.411Z,23.73
2018-06-27T12:17:57.527Z,23.79
2018-06-27T12:19:07.203Z,23.78
2018-06-27T12:20:16.750Z,23.8
2018-06-27T12:21:25.908Z,23.85
2018-06-27T12:22:35.061Z,23.78
2018-06-27T12:23:44.464Z,23.76
2018-06-27T12:24:53.892Z,23.83
2018-06-27T12:26:03.061Z,23.85
2018-06-27T12:27:12.470Z,23.78
2018-06-27T12:28:21.626Z,23.78
2018-06-27T12:29:31.296Z,23.84
2018-06-27T12:30:41.221Z,23.84
2018-06-27T12:31:51.163Z,23.85
2018-06-27T12:33:00.846Z,23.85
2018-06-27T12:34:10.538Z,23.83
2018-06-27T12:35:20.203Z,23.83
2018-06-27T12:36:29.352Z,23.84
2018-06-27T12:37:38.774Z,23.8
2018-06-27T12:38:48.784Z,23.85
2018-06-27T12:39:58.197Z,23.87
2018-06-27T12:41:07.597Z,23.83
2018-06-27T12:42:17.006Z,23.83
2018-06-27T12:43:26.167Z,23.76
2018-06-27T12:44:35.577Z,23.88
2018-06-27T12:45:44.973Z,23.87
2018-06-27T12:46:54.659Z,23.87
2018-06-27T12:48:03.548Z,23.87
2018-06-27T12:49:13.288Z,23.87
2018-06-27T12:50:23.284Z,23.9
2018-06-27T12:51:33.019Z,23.88
2018-06-27T12:52:42.187Z,23.87
2018-06-27T12:53:51.345Z,23.9
2018-06-27T12:55:01.274Z,23.95
2018-06-27T12:56:11.203Z,23.8
2018-06-27T12:57:20.099Z,23.87
2018-06-27T12:58:29.779Z,23.88
2018-06-27T12:59:39.210Z,23.83
2018-06-27T13:00:49.308Z,23.91
2018-06-27T13:01:58.739Z,23.84
2018-06-27T13:03:08.402Z,23.91
2018-06-27T13:04:17.555Z,23.94
2018-06-27T13:05:27.224Z,23.98
2018-06-27T13:06:36.646Z,23.84
2018-06-27T13:07:46.060Z,23.79
2018-06-27T13:08:56.366Z,23.93
2018-06-27T13:10:05.603Z,23.91
2018-06-27T13:11:15.021Z,23.87
2018-06-27T13:12:24.695Z,23.88
2018-06-27T13:13:34.388Z,23.97
2018-06-27T13:14:44.039Z,23.91
2018-06-27T13:15:53.804Z,23.87
2018-06-27T13:17:03.245Z,23.88
2018-06-27T13:18:12.674Z,23.87
2018-06-27T13:19:22.351Z,23.9
2018-06-27T13:20:31.494Z,23.88
2018-06-27T13:21:40.692Z,23.9
2018-06-27T13:22:50.100Z,23.9
2018-06-27T13:23:59.336Z,23.88
2018-06-27T13:25:09.321Z,23.93
2018-06-27T13:26:18.487Z,23.93
2018-06-27T13:27:28.567Z,23.93
2018-06-27T13:28:37.453Z,23.91
2018-06-27T13:29:46.602Z,23.87
2018-06-27T13:30:56.020Z,23.94
2018-06-27T13:32:04.916Z,23.97
2018-06-27T13:33:14.586Z,23.98
2018-06-27T13:34:24.000Z,23.98
2018-06-27T13:35:33.690Z,23.91
2018-06-27T13:36:42.580Z,23.93
2018-06-27T13:37:52.259Z,23.93
2018-06-27T13:39:01.950Z,23.94
2018-06-27T13:40:11.627Z,23.97
2018-06-27T13:41:21.034Z,24
2018-06-27T13:42:30.723Z,23.95
2018-06-27T13:43:40.401Z,23.94
2018-06-27T13:44:50.344Z,24.05
2018-06-27T13:46:00.030Z,23.95
2018-06-27T13:47:09.202Z,24.06
2018-06-27T13:48:18.879Z,23.97
2018-06-27T13:49:28.543Z,24.05
2018-06-27T13:50:38.223Z,24.09
2018-06-27T13:51:47.886Z,23.98
2018-06-27T13:52:57.302Z,24.05
2018-06-27T13:54:06.208Z,24.1
2018-06-27T13:55:15.622Z,24.05
2018-06-27T13:56:25.573Z,24.1
2018-06-27T13:57:35.256Z,24.1
2018-06-27T13:58:44.933Z,24.13
2018-06-27T13:59:54.866Z,24.16
2018-06-27T14:01:04.021Z,24.05
2018-06-27T14:02:13.753Z,24.12
2018-06-27T14:03:22.924Z,24.15
2018-06-27T14:04:32.359Z,24.1
2018-06-27T14:05:42.043Z,24.03
2018-06-27T14:06:51.465Z,24.18
2018-06-27T14:08:01.131Z,24.05
2018-06-27T14:09:10.806Z,24.12
2018-06-27T14:10:19.984Z,24.08
2018-06-27T14:11:29.927Z,24.15
2018-06-27T14:12:39.605Z,24.13
2018-06-27T14:13:49.028Z,24.2
2018-06-27T14:14:58.736Z,24.15
2018-06-27T14:16:07.887Z,24.27
2018-06-27T14:17:17.841Z,24.2
2018-06-27T14:18:27.562Z,24.18
2018-06-27T14:19:36.968Z,24.13
2018-06-27T14:20:46.884Z,24.2
2018-06-27T14:21:56.548Z,24.16
2018-06-27T14:23:06.210Z,24.21
2018-06-27T14:24:15.497Z,24.2
2018-06-27T14:25:25.690Z,24.22
2018-06-27T14:26:34.844Z,24.22
2018-06-27T14:27:44.507Z,24.24
2018-06-27T14:28:54.434Z,24.21
2018-06-27T14:30:03.850Z,24.09
2018-06-27T14:31:13.255Z,24.2
2018-06-27T14:32:22.669Z,24.25
2018-06-27T14:33:31.817Z,24.24
2018-06-27T14:34:41.484Z,24.3
2018-06-27T14:35:51.424Z,24.25
2018-06-27T14:37:00.568Z,24.18
2018-06-27T14:38:10.500Z,24.3
2018-06-27T14:39:19.910Z,24.31
2018-06-27T14:40:29.693Z,24.3
2018-06-27T14:41:38.842Z,24.12
2018-06-27T14:42:48.755Z,24.3
2018-06-27T14:43:58.082Z,24.31
2018-06-27T14:45:07.828Z,24.32
2018-06-27T14:46:17.239Z,24.31
2018-06-27T14:47:26.396Z,24.13
2018-06-27T14:48:36.077Z,24.28
2018-06-27T14:49:45.484Z,24.28
2018-06-27T14:50:55.519Z,24.3
2018-06-27T14:52:05.187Z,24.31
2018-06-27T14:53:15.313Z,24.27
2018-06-27T14:54:25.008Z,24.28
2018-06-27T14:55:34.687Z,24.31
2018-06-27T14:56:44.103Z,24.28
2018-06-27T14:57:53.545Z,24.28
2018-06-27T14:59:02.950Z,24.27